sensor_id;sensor_type;location;lat;lon;timestamp;P1;durP1;ratioP1;P2;durP2;ratioP2
18905;SDS011;9585;51.018;4.282;2022-10-24T00:01:39;2.22;;;1.52;;
18905;SDS011;9585;51.018;4.282;2022-10-24T00:04:07;3.95;;;1.40;;
18905;SDS011;9585;51.018;4.282;2022-10-24T00:06:36;6.82;;;1.63;;
18905;SDS011;9585;51.018;4.282;2022-10-24T00:09:03;6.82;;;1.70;;
18905;SDS011;9585;51.018;4.282;2022-10-24T00:11:30;7.28;;;1.70;;
18905;SDS011;9585;51.018;4.282;2022-10-24T00:13:58;4.43;;;1.70;;
18905;SDS011;9585;51.018;4.282;2022-10-24T00:16:30;5.35;;;1.67;;
18905;SDS011;9585;51.018;4.282;2022-10-24T00:19:06;5.40;;;1.83;;
18905;SDS011;9585;51.018;4.282;2022-10-24T00:21:36;3.15;;;1.65;;
18905;SDS011;9585;51.018;4.282;2022-10-24T00:24:04;4.85;;;1.52;;
18905;SDS011;9585;51.018;4.282;2022-10-24T00:26:35;3.35;;;1.40;;
18905;SDS011;9585;51.018;4.282;2022-10-24T00:29:06;4.88;;;1.63;;
18905;SDS011;9585;51.018;4.282;2022-10-24T00:31:34;6.75;;;2.03;;
18905;SDS011;9585;51.018;4.282;2022-10-24T00:34:02;3.88;;;1.60;;
18905;SDS011;9585;51.018;4.282;2022-10-24T00:36:30;4.53;;;1.90;;
18905;SDS011;9585;51.018;4.282;2022-10-24T00:38:59;4.20;;;1.80;;
18905;SDS011;9585;51.018;4.282;2022-10-24T00:41:30;5.63;;;1.60;;
18905;SDS011;9585;51.018;4.282;2022-10-24T00:44:13;3.85;;;1.50;;
18905;SDS011;9585;51.018;4.282;2022-10-24T00:46:42;6.13;;;1.80;;
18905;SDS011;9585;51.018;4.282;2022-10-24T00:49:13;2.70;;;1.40;;
18905;SDS011;9585;51.018;4.282;2022-10-24T00:51:43;3.00;;;1.50;;
18905;SDS011;9585;51.018;4.282;2022-10-24T00:54:15;3.38;;;1.50;;
18905;SDS011;9585;51.018;4.282;2022-10-24T00:56:44;3.47;;;1.20;;
18905;SDS011;9585;51.018;4.282;2022-10-24T00:59:19;5.30;;;1.40;;
18905;SDS011;9585;51.018;4.282;2022-10-24T01:01:47;5.68;;;1.70;;
18905;SDS011;9585;51.018;4.282;2022-10-24T01:04:15;7.18;;;1.42;;
18905;SDS011;9585;51.018;4.282;2022-10-24T01:06:44;3.83;;;1.40;;
18905;SDS011;9585;51.018;4.282;2022-10-24T01:09:21;4.63;;;1.52;;
18905;SDS011;9585;51.018;4.282;2022-10-24T01:12:00;3.38;;;1.42;;
18905;SDS011;9585;51.018;4.282;2022-10-24T01:14:38;4.70;;;1.30;;
18905;SDS011;9585;51.018;4.282;2022-10-24T01:17:13;3.38;;;1.20;;
18905;SDS011;9585;51.018;4.282;2022-10-24T01:20:02;4.20;;;1.30;;
18905;SDS011;9585;51.018;4.282;2022-10-24T01:22:46;2.25;;;1.10;;
18905;SDS011;9585;51.018;4.282;2022-10-24T01:25:26;3.22;;;1.40;;
18905;SDS011;9585;51.018;4.282;2022-10-24T01:28:06;4.80;;;1.33;;
18905;SDS011;9585;51.018;4.282;2022-10-24T01:30:40;3.78;;;1.27;;
18905;SDS011;9585;51.018;4.282;2022-10-24T01:33:12;3.50;;;1.45;;
18905;SDS011;9585;51.018;4.282;2022-10-24T01:35:47;6.60;;;1.60;;
18905;SDS011;9585;51.018;4.282;2022-10-24T01:38:19;5.55;;;1.08;;
18905;SDS011;9585;51.018;4.282;2022-10-24T01:40:52;3.88;;;1.20;;
18905;SDS011;9585;51.018;4.282;2022-10-24T01:43:25;4.10;;;1.48;;
18905;SDS011;9585;51.018;4.282;2022-10-24T01:46:00;6.10;;;1.20;;
18905;SDS011;9585;51.018;4.282;2022-10-24T01:48:30;4.55;;;1.20;;
18905;SDS011;9585;51.018;4.282;2022-10-24T01:51:01;4.22;;;1.20;;
18905;SDS011;9585;51.018;4.282;2022-10-24T01:53:30;3.90;;;1.13;;
18905;SDS011;9585;51.018;4.282;2022-10-24T01:56:00;5.40;;;1.10;;
18905;SDS011;9585;51.018;4.282;2022-10-24T01:58:28;3.35;;;0.90;;
18905;SDS011;9585;51.018;4.282;2022-10-24T02:01:04;3.53;;;1.00;;
18905;SDS011;9585;51.018;4.282;2022-10-24T02:03:36;2.80;;;0.82;;
18905;SDS011;9585;51.018;4.282;2022-10-24T02:06:08;7.30;;;0.90;;
18905;SDS011;9585;51.018;4.282;2022-10-24T02:08:40;3.63;;;1.15;;
18905;SDS011;9585;51.018;4.282;2022-10-24T02:11:11;5.32;;;1.30;;
18905;SDS011;9585;51.018;4.282;2022-10-24T02:13:40;3.17;;;0.85;;
18905;SDS011;9585;51.018;4.282;2022-10-24T02:16:13;4.03;;;1.13;;
18905;SDS011;9585;51.018;4.282;2022-10-24T02:18:43;4.60;;;1.05;;
18905;SDS011;9585;51.018;4.282;2022-10-24T02:21:14;6.82;;;1.15;;
18905;SDS011;9585;51.018;4.282;2022-10-24T02:23:46;4.53;;;1.10;;
18905;SDS011;9585;51.018;4.282;2022-10-24T02:26:20;4.88;;;1.08;;
18905;SDS011;9585;51.018;4.282;2022-10-24T02:28:52;4.22;;;1.10;;
18905;SDS011;9585;51.018;4.282;2022-10-24T02:31:29;5.68;;;1.40;;
18905;SDS011;9585;51.018;4.282;2022-10-24T02:33:59;6.85;;;1.20;;
18905;SDS011;9585;51.018;4.282;2022-10-24T02:36:31;5.20;;;1.20;;
18905;SDS011;9585;51.018;4.282;2022-10-24T02:39:01;4.28;;;1.08;;
18905;SDS011;9585;51.018;4.282;2022-10-24T02:41:32;4.00;;;1.02;;
18905;SDS011;9585;51.018;4.282;2022-10-24T02:44:02;3.90;;;0.90;;
18905;SDS011;9585;51.018;4.282;2022-10-24T02:46:33;4.25;;;1.10;;
18905;SDS011;9585;51.018;4.282;2022-10-24T02:49:01;7.05;;;1.10;;
18905;SDS011;9585;51.018;4.282;2022-10-24T02:51:31;3.67;;;1.00;;
18905;SDS011;9585;51.018;4.282;2022-10-24T02:54:00;4.28;;;1.25;;
18905;SDS011;9585;51.018;4.282;2022-10-24T02:56:30;7.97;;;1.30;;
18905;SDS011;9585;51.018;4.282;2022-10-24T02:59:00;2.85;;;1.10;;
18905;SDS011;9585;51.018;4.282;2022-10-24T03:01:28;4.75;;;1.00;;
18905;SDS011;9585;51.018;4.282;2022-10-24T03:03:57;2.35;;;1.00;;
18905;SDS011;9585;51.018;4.282;2022-10-24T03:06:25;3.08;;;1.10;;
18905;SDS011;9585;51.018;4.282;2022-10-24T03:08:54;5.72;;;1.23;;
18905;SDS011;9585;51.018;4.282;2022-10-24T03:11:21;5.78;;;1.55;;
18905;SDS011;9585;51.018;4.282;2022-10-24T03:13:49;4.20;;;1.10;;
18905;SDS011;9585;51.018;4.282;2022-10-24T03:16:17;4.20;;;1.10;;
18905;SDS011;9585;51.018;4.282;2022-10-24T03:18:45;4.68;;;1.20;;
18905;SDS011;9585;51.018;4.282;2022-10-24T03:21:17;4.45;;;1.25;;
18905;SDS011;9585;51.018;4.282;2022-10-24T03:23:44;4.88;;;1.20;;
18905;SDS011;9585;51.018;4.282;2022-10-24T03:26:11;3.88;;;1.05;;
18905;SDS011;9585;51.018;4.282;2022-10-24T03:28:42;4.30;;;1.27;;
18905;SDS011;9585;51.018;4.282;2022-10-24T03:31:09;7.22;;;1.23;;
18905;SDS011;9585;51.018;4.282;2022-10-24T03:33:39;3.58;;;1.17;;
18905;SDS011;9585;51.018;4.282;2022-10-24T03:36:07;4.00;;;0.98;;
18905;SDS011;9585;51.018;4.282;2022-10-24T03:38:36;5.00;;;1.30;;
18905;SDS011;9585;51.018;4.282;2022-10-24T03:41:03;2.47;;;1.02;;
18905;SDS011;9585;51.018;4.282;2022-10-24T03:43:31;5.38;;;1.20;;
18905;SDS011;9585;51.018;4.282;2022-10-24T03:45:59;3.58;;;1.05;;
18905;SDS011;9585;51.018;4.282;2022-10-24T03:48:26;3.45;;;1.08;;
18905;SDS011;9585;51.018;4.282;2022-10-24T03:50:56;3.08;;;1.20;;
18905;SDS011;9585;51.018;4.282;2022-10-24T03:53:24;3.35;;;1.20;;
18905;SDS011;9585;51.018;4.282;2022-10-24T03:55:53;5.22;;;1.27;;
18905;SDS011;9585;51.018;4.282;2022-10-24T03:58:21;3.42;;;1.13;;
18905;SDS011;9585;51.018;4.282;2022-10-24T04:00:49;5.38;;;1.30;;
18905;SDS011;9585;51.018;4.282;2022-10-24T04:03:16;5.05;;;1.30;;
18905;SDS011;9585;51.018;4.282;2022-10-24T04:05:45;5.35;;;1.00;;
18905;SDS011;9585;51.018;4.282;2022-10-24T04:08:13;4.22;;;1.10;;
18905;SDS011;9585;51.018;4.282;2022-10-24T04:10:40;4.50;;;1.27;;
18905;SDS011;9585;51.018;4.282;2022-10-24T04:13:11;3.47;;;1.00;;
18905;SDS011;9585;51.018;4.282;2022-10-24T04:15:42;5.50;;;1.15;;
18905;SDS011;9585;51.018;4.282;2022-10-24T04:18:09;5.57;;;1.20;;
18905;SDS011;9585;51.018;4.282;2022-10-24T04:20:36;5.95;;;1.20;;
18905;SDS011;9585;51.018;4.282;2022-10-24T04:23:04;4.97;;;1.30;;
18905;SDS011;9585;51.018;4.282;2022-10-24T04:25:31;7.30;;;1.25;;
18905;SDS011;9585;51.018;4.282;2022-10-24T04:27:58;4.13;;;1.38;;
18905;SDS011;9585;51.018;4.282;2022-10-24T04:30:28;6.20;;;1.30;;
18905;SDS011;9585;51.018;4.282;2022-10-24T04:32:55;6.22;;;1.30;;
18905;SDS011;9585;51.018;4.282;2022-10-24T04:35:24;6.88;;;1.55;;
18905;SDS011;9585;51.018;4.282;2022-10-24T04:37:52;6.75;;;1.50;;
18905;SDS011;9585;51.018;4.282;2022-10-24T04:40:19;6.78;;;1.45;;
18905;SDS011;9585;51.018;4.282;2022-10-24T04:42:46;5.32;;;1.30;;
18905;SDS011;9585;51.018;4.282;2022-10-24T04:45:14;7.22;;;1.98;;
18905;SDS011;9585;51.018;4.282;2022-10-24T04:47:43;6.65;;;1.55;;
18905;SDS011;9585;51.018;4.282;2022-10-24T04:50:10;5.07;;;1.35;;
18905;SDS011;9585;51.018;4.282;2022-10-24T04:52:38;7.50;;;1.65;;
18905;SDS011;9585;51.018;4.282;2022-10-24T04:55:06;11.20;;;1.70;;
18905;SDS011;9585;51.018;4.282;2022-10-24T04:57:33;6.70;;;1.70;;
18905;SDS011;9585;51.018;4.282;2022-10-24T05:00:01;6.90;;;1.60;;
18905;SDS011;9585;51.018;4.282;2022-10-24T05:02:29;8.63;;;1.70;;
18905;SDS011;9585;51.018;4.282;2022-10-24T05:04:58;6.40;;;1.58;;
18905;SDS011;9585;51.018;4.282;2022-10-24T05:07:25;6.95;;;1.55;;
18905;SDS011;9585;51.018;4.282;2022-10-24T05:09:52;6.07;;;1.83;;
18905;SDS011;9585;51.018;4.282;2022-10-24T05:12:20;8.20;;;1.77;;
18905;SDS011;9585;51.018;4.282;2022-10-24T05:14:47;6.05;;;1.70;;
18905;SDS011;9585;51.018;4.282;2022-10-24T05:17:15;7.85;;;1.42;;
18905;SDS011;9585;51.018;4.282;2022-10-24T05:19:42;8.05;;;1.83;;
18905;SDS011;9585;51.018;4.282;2022-10-24T05:22:11;9.70;;;1.65;;
18905;SDS011;9585;51.018;4.282;2022-10-24T05:24:39;7.82;;;1.63;;
18905;SDS011;9585;51.018;4.282;2022-10-24T05:27:07;5.80;;;1.63;;
18905;SDS011;9585;51.018;4.282;2022-10-24T05:29:34;5.45;;;1.60;;
18905;SDS011;9585;51.018;4.282;2022-10-24T05:32:02;9.48;;;1.67;;
18905;SDS011;9585;51.018;4.282;2022-10-24T05:34:30;7.97;;;1.70;;
18905;SDS011;9585;51.018;4.282;2022-10-24T05:36:58;8.23;;;1.65;;
18905;SDS011;9585;51.018;4.282;2022-10-24T05:39:30;7.43;;;1.65;;
18905;SDS011;9585;51.018;4.282;2022-10-24T05:41:57;7.72;;;1.60;;
18905;SDS011;9585;51.018;4.282;2022-10-24T05:44:25;7.88;;;1.77;;
18905;SDS011;9585;51.018;4.282;2022-10-24T05:46:52;9.10;;;2.05;;
18905;SDS011;9585;51.018;4.282;2022-10-24T05:49:20;12.30;;;1.75;;
18905;SDS011;9585;51.018;4.282;2022-10-24T05:51:49;8.02;;;1.95;;
18905;SDS011;9585;51.018;4.282;2022-10-24T05:54:20;7.10;;;1.50;;
18905;SDS011;9585;51.018;4.282;2022-10-24T05:56:49;8.20;;;1.77;;
18905;SDS011;9585;51.018;4.282;2022-10-24T05:59:16;6.40;;;1.50;;
18905;SDS011;9585;51.018;4.282;2022-10-24T06:01:44;9.07;;;1.70;;
18905;SDS011;9585;51.018;4.282;2022-10-24T06:04:14;10.18;;;2.53;;
18905;SDS011;9585;51.018;4.282;2022-10-24T06:06:43;9.73;;;2.03;;
18905;SDS011;9585;51.018;4.282;2022-10-24T06:09:13;9.90;;;2.10;;
18905;SDS011;9585;51.018;4.282;2022-10-24T06:11:41;10.82;;;2.00;;
18905;SDS011;9585;51.018;4.282;2022-10-24T06:14:10;6.07;;;1.60;;
18905;SDS011;9585;51.018;4.282;2022-10-24T06:16:37;8.52;;;1.70;;
18905;SDS011;9585;51.018;4.282;2022-10-24T06:19:05;7.07;;;1.83;;
18905;SDS011;9585;51.018;4.282;2022-10-24T06:21:32;7.55;;;1.60;;
18905;SDS011;9585;51.018;4.282;2022-10-24T06:23:59;9.48;;;1.95;;
18905;SDS011;9585;51.018;4.282;2022-10-24T06:26:27;8.40;;;2.00;;
18905;SDS011;9585;51.018;4.282;2022-10-24T06:28:54;11.18;;;1.75;;
18905;SDS011;9585;51.018;4.282;2022-10-24T06:31:23;8.65;;;1.70;;
18905;SDS011;9585;51.018;4.282;2022-10-24T06:33:51;6.60;;;1.90;;
18905;SDS011;9585;51.018;4.282;2022-10-24T06:36:21;9.40;;;1.77;;
18905;SDS011;9585;51.018;4.282;2022-10-24T06:38:48;8.38;;;1.60;;
18905;SDS011;9585;51.018;4.282;2022-10-24T06:41:16;6.32;;;1.25;;
18905;SDS011;9585;51.018;4.282;2022-10-24T06:43:43;7.38;;;1.25;;
18905;SDS011;9585;51.018;4.282;2022-10-24T06:46:12;6.47;;;1.30;;
18905;SDS011;9585;51.018;4.282;2022-10-24T06:48:42;5.60;;;1.13;;
18905;SDS011;9585;51.018;4.282;2022-10-24T06:51:13;7.93;;;1.40;;
18905;SDS011;9585;51.018;4.282;2022-10-24T06:53:41;7.80;;;1.58;;
18905;SDS011;9585;51.018;4.282;2022-10-24T06:56:08;6.38;;;1.33;;
18905;SDS011;9585;51.018;4.282;2022-10-24T06:58:37;7.68;;;1.42;;
18905;SDS011;9585;51.018;4.282;2022-10-24T07:04:28;10.38;;;1.65;;
18905;SDS011;9585;51.018;4.282;2022-10-24T07:06:56;7.25;;;1.70;;
18905;SDS011;9585;51.018;4.282;2022-10-24T07:09:24;6.07;;;1.27;;
18905;SDS011;9585;51.018;4.282;2022-10-24T07:11:53;5.25;;;1.27;;
18905;SDS011;9585;51.018;4.282;2022-10-24T07:14:21;11.35;;;1.95;;
18905;SDS011;9585;51.018;4.282;2022-10-24T07:16:51;6.85;;;1.42;;
18905;SDS011;9585;51.018;4.282;2022-10-24T07:19:22;6.30;;;1.50;;
18905;SDS011;9585;51.018;4.282;2022-10-24T07:21:51;5.90;;;1.48;;
18905;SDS011;9585;51.018;4.282;2022-10-24T07:24:18;4.90;;;1.17;;
18905;SDS011;9585;51.018;4.282;2022-10-24T07:26:48;5.15;;;1.17;;
18905;SDS011;9585;51.018;4.282;2022-10-24T07:29:15;7.13;;;1.58;;
18905;SDS011;9585;51.018;4.282;2022-10-24T07:31:43;4.78;;;1.35;;
18905;SDS011;9585;51.018;4.282;2022-10-24T07:34:13;8.73;;;1.60;;
18905;SDS011;9585;51.018;4.282;2022-10-24T07:36:40;7.10;;;1.65;;
18905;SDS011;9585;51.018;4.282;2022-10-24T07:39:09;6.32;;;1.35;;
18905;SDS011;9585;51.018;4.282;2022-10-24T07:41:38;7.78;;;1.45;;
18905;SDS011;9585;51.018;4.282;2022-10-24T07:44:06;5.78;;;1.42;;
18905;SDS011;9585;51.018;4.282;2022-10-24T07:46:34;4.53;;;1.42;;
18905;SDS011;9585;51.018;4.282;2022-10-24T07:49:02;6.38;;;1.45;;
18905;SDS011;9585;51.018;4.282;2022-10-24T07:51:29;6.80;;;1.50;;
18905;SDS011;9585;51.018;4.282;2022-10-24T07:53:57;5.82;;;1.30;;
18905;SDS011;9585;51.018;4.282;2022-10-24T07:56:29;8.35;;;1.65;;
18905;SDS011;9585;51.018;4.282;2022-10-24T07:58:56;6.72;;;1.50;;
18905;SDS011;9585;51.018;4.282;2022-10-24T08:01:25;7.70;;;1.60;;
18905;SDS011;9585;51.018;4.282;2022-10-24T08:03:53;8.05;;;1.63;;
18905;SDS011;9585;51.018;4.282;2022-10-24T08:06:22;8.93;;;2.25;;
18905;SDS011;9585;51.018;4.282;2022-10-24T08:08:54;7.13;;;1.55;;
18905;SDS011;9585;51.018;4.282;2022-10-24T08:11:23;7.80;;;1.60;;
18905;SDS011;9585;51.018;4.282;2022-10-24T08:13:53;6.82;;;1.35;;
18905;SDS011;9585;51.018;4.282;2022-10-24T08:16:23;8.27;;;1.48;;
18905;SDS011;9585;51.018;4.282;2022-10-24T08:18:51;8.95;;;1.52;;
18905;SDS011;9585;51.018;4.282;2022-10-24T08:21:21;13.85;;;2.28;;
18905;SDS011;9585;51.018;4.282;2022-10-24T08:23:51;10.30;;;1.85;;
18905;SDS011;9585;51.018;4.282;2022-10-24T08:26:21;8.07;;;1.92;;
18905;SDS011;9585;51.018;4.282;2022-10-24T08:28:50;7.60;;;1.83;;
18905;SDS011;9585;51.018;4.282;2022-10-24T08:31:21;9.70;;;1.88;;
18905;SDS011;9585;51.018;4.282;2022-10-24T08:33:50;7.60;;;1.75;;
18905;SDS011;9585;51.018;4.282;2022-10-24T08:36:19;7.28;;;1.70;;
18905;SDS011;9585;51.018;4.282;2022-10-24T08:38:48;6.93;;;1.60;;
18905;SDS011;9585;51.018;4.282;2022-10-24T08:41:20;9.18;;;1.95;;
18905;SDS011;9585;51.018;4.282;2022-10-24T08:43:53;11.32;;;1.90;;
18905;SDS011;9585;51.018;4.282;2022-10-24T08:46:38;9.43;;;2.08;;
18905;SDS011;9585;51.018;4.282;2022-10-24T08:49:17;9.15;;;2.22;;
18905;SDS011;9585;51.018;4.282;2022-10-24T08:51:52;8.70;;;2.33;;
18905;SDS011;9585;51.018;4.282;2022-10-24T08:54:24;9.55;;;2.55;;
18905;SDS011;9585;51.018;4.282;2022-10-24T08:56:56;11.43;;;2.10;;
18905;SDS011;9585;51.018;4.282;2022-10-24T08:59:27;11.80;;;2.40;;
18905;SDS011;9585;51.018;4.282;2022-10-24T09:01:58;7.88;;;1.85;;
18905;SDS011;9585;51.018;4.282;2022-10-24T09:04:30;9.38;;;1.98;;
18905;SDS011;9585;51.018;4.282;2022-10-24T09:07:02;9.00;;;2.00;;
18905;SDS011;9585;51.018;4.282;2022-10-24T09:09:32;9.15;;;1.90;;
18905;SDS011;9585;51.018;4.282;2022-10-24T09:12:07;12.52;;;2.05;;
18905;SDS011;9585;51.018;4.282;2022-10-24T09:14:40;6.90;;;1.70;;
18905;SDS011;9585;51.018;4.282;2022-10-24T09:17:11;10.75;;;2.00;;
18905;SDS011;9585;51.018;4.282;2022-10-24T09:19:42;10.13;;;2.05;;
18905;SDS011;9585;51.018;4.282;2022-10-24T09:22:15;7.55;;;1.73;;
18905;SDS011;9585;51.018;4.282;2022-10-24T09:24:43;8.75;;;1.67;;
18905;SDS011;9585;51.018;4.282;2022-10-24T09:27:15;7.20;;;1.90;;
18905;SDS011;9585;51.018;4.282;2022-10-24T09:29:46;12.60;;;2.25;;
18905;SDS011;9585;51.018;4.282;2022-10-24T09:32:16;7.43;;;1.55;;
18905;SDS011;9585;51.018;4.282;2022-10-24T09:34:45;6.85;;;1.60;;
18905;SDS011;9585;51.018;4.282;2022-10-24T09:37:34;7.20;;;1.42;;
18905;SDS011;9585;51.018;4.282;2022-10-24T09:40:08;6.05;;;1.60;;
18905;SDS011;9585;51.018;4.282;2022-10-24T09:42:48;5.82;;;1.90;;
18905;SDS011;9585;51.018;4.282;2022-10-24T09:45:19;4.93;;;1.48;;
18905;SDS011;9585;51.018;4.282;2022-10-24T09:48:02;6.15;;;1.75;;
18905;SDS011;9585;51.018;4.282;2022-10-24T09:50:33;7.57;;;1.60;;
18905;SDS011;9585;51.018;4.282;2022-10-24T09:53:02;7.28;;;1.55;;
18905;SDS011;9585;51.018;4.282;2022-10-24T09:55:43;5.78;;;1.55;;
18905;SDS011;9585;51.018;4.282;2022-10-24T09:58:17;5.72;;;1.30;;
18905;SDS011;9585;51.018;4.282;2022-10-24T10:00:55;5.57;;;1.50;;
18905;SDS011;9585;51.018;4.282;2022-10-24T10:03:26;5.47;;;1.55;;
18905;SDS011;9585;51.018;4.282;2022-10-24T10:05:54;5.22;;;1.38;;
18905;SDS011;9585;51.018;4.282;2022-10-24T10:08:26;8.63;;;1.85;;
18905;SDS011;9585;51.018;4.282;2022-10-24T10:10:56;6.18;;;1.35;;
18905;SDS011;9585;51.018;4.282;2022-10-24T10:13:25;6.30;;;1.45;;
18905;SDS011;9585;51.018;4.282;2022-10-24T10:15:54;5.75;;;1.50;;
18905;SDS011;9585;51.018;4.282;2022-10-24T10:18:29;6.13;;;1.60;;
18905;SDS011;9585;51.018;4.282;2022-10-24T10:21:07;5.32;;;1.70;;
18905;SDS011;9585;51.018;4.282;2022-10-24T10:23:38;4.90;;;1.42;;
18905;SDS011;9585;51.018;4.282;2022-10-24T10:26:12;6.53;;;1.60;;
18905;SDS011;9585;51.018;4.282;2022-10-24T10:28:51;7.97;;;1.80;;
18905;SDS011;9585;51.018;4.282;2022-10-24T10:31:24;6.43;;;1.60;;
18905;SDS011;9585;51.018;4.282;2022-10-24T10:33:59;7.00;;;1.73;;
18905;SDS011;9585;51.018;4.282;2022-10-24T10:36:37;8.07;;;1.58;;
18905;SDS011;9585;51.018;4.282;2022-10-24T10:39:23;10.65;;;1.80;;
18905;SDS011;9585;51.018;4.282;2022-10-24T10:42:02;10.27;;;1.90;;
18905;SDS011;9585;51.018;4.282;2022-10-24T10:47:35;7.15;;;1.60;;
18905;SDS011;9585;51.018;4.282;2022-10-24T10:50:17;6.50;;;1.60;;
18905;SDS011;9585;51.018;4.282;2022-10-24T10:52:53;5.97;;;1.95;;
18905;SDS011;9585;51.018;4.282;2022-10-24T10:55:26;7.80;;;1.83;;
18905;SDS011;9585;51.018;4.282;2022-10-24T10:58:02;8.68;;;1.73;;
18905;SDS011;9585;51.018;4.282;2022-10-24T11:00:45;7.28;;;1.85;;
18905;SDS011;9585;51.018;4.282;2022-10-24T11:03:25;8.07;;;1.70;;
18905;SDS011;9585;51.018;4.282;2022-10-24T11:06:10;5.20;;;1.45;;
18905;SDS011;9585;51.018;4.282;2022-10-24T11:08:49;5.00;;;1.50;;
18905;SDS011;9585;51.018;4.282;2022-10-24T11:11:26;5.93;;;1.70;;
18905;SDS011;9585;51.018;4.282;2022-10-24T11:14:02;4.72;;;1.40;;
18905;SDS011;9585;51.018;4.282;2022-10-24T11:16:33;5.28;;;1.52;;
18905;SDS011;9585;51.018;4.282;2022-10-24T11:19:17;6.45;;;1.48;;
18905;SDS011;9585;51.018;4.282;2022-10-24T11:21:52;7.35;;;1.38;;
18905;SDS011;9585;51.018;4.282;2022-10-24T11:24:22;8.05;;;1.80;;
18905;SDS011;9585;51.018;4.282;2022-10-24T11:26:52;5.10;;;1.42;;
18905;SDS011;9585;51.018;4.282;2022-10-24T11:29:25;6.05;;;1.50;;
18905;SDS011;9585;51.018;4.282;2022-10-24T11:32:00;5.57;;;1.20;;
18905;SDS011;9585;51.018;4.282;2022-10-24T11:34:33;7.68;;;1.88;;
18905;SDS011;9585;51.018;4.282;2022-10-24T11:37:09;8.18;;;1.48;;
18905;SDS011;9585;51.018;4.282;2022-10-24T11:39:42;6.10;;;1.40;;
18905;SDS011;9585;51.018;4.282;2022-10-24T11:42:14;7.00;;;1.25;;
18905;SDS011;9585;51.018;4.282;2022-10-24T11:44:50;6.57;;;1.55;;
18905;SDS011;9585;51.018;4.282;2022-10-24T11:47:50;7.13;;;1.08;;
18905;SDS011;9585;51.018;4.282;2022-10-24T11:50:32;5.05;;;1.02;;
18905;SDS011;9585;51.018;4.282;2022-10-24T11:53:11;5.05;;;1.17;;
18905;SDS011;9585;51.018;4.282;2022-10-24T11:55:54;6.28;;;1.30;;
18905;SDS011;9585;51.018;4.282;2022-10-24T11:58:30;5.85;;;1.35;;
18905;SDS011;9585;51.018;4.282;2022-10-24T12:01:13;6.55;;;1.08;;
18905;SDS011;9585;51.018;4.282;2022-10-24T12:07:13;4.55;;;1.02;;
18905;SDS011;9585;51.018;4.282;2022-10-24T12:10:22;4.05;;;1.13;;
18905;SDS011;9585;51.018;4.282;2022-10-24T12:13:06;6.75;;;1.02;;
18905;SDS011;9585;51.018;4.282;2022-10-24T12:15:47;6.82;;;1.20;;
18905;SDS011;9585;51.018;4.282;2022-10-24T12:18:24;6.80;;;1.27;;
18905;SDS011;9585;51.018;4.282;2022-10-24T12:20:55;3.08;;;0.90;;
18905;SDS011;9585;51.018;4.282;2022-10-24T12:23:28;5.43;;;1.55;;
18905;SDS011;9585;51.018;4.282;2022-10-24T12:26:02;4.43;;;1.13;;
18905;SDS011;9585;51.018;4.282;2022-10-24T12:28:31;5.68;;;1.30;;
18905;SDS011;9585;51.018;4.282;2022-10-24T12:31:09;6.50;;;1.02;;
18905;SDS011;9585;51.018;4.282;2022-10-24T12:33:44;2.45;;;0.98;;
18905;SDS011;9585;51.018;4.282;2022-10-24T12:39:28;4.25;;;1.13;;
18905;SDS011;9585;51.018;4.282;2022-10-24T12:41:58;5.95;;;1.10;;
18905;SDS011;9585;51.018;4.282;2022-10-24T12:44:36;4.13;;;1.10;;
18905;SDS011;9585;51.018;4.282;2022-10-24T12:53:17;3.20;;;0.57;;
18905;SDS011;9585;51.018;4.282;2022-10-24T12:56:07;5.43;;;1.00;;
18905;SDS011;9585;51.018;4.282;2022-10-24T12:58:44;3.55;;;0.70;;
18905;SDS011;9585;51.018;4.282;2022-10-24T13:01:24;4.68;;;0.88;;
18905;SDS011;9585;51.018;4.282;2022-10-24T13:07:11;4.78;;;0.80;;
18905;SDS011;9585;51.018;4.282;2022-10-24T13:10:19;2.88;;;0.70;;
18905;SDS011;9585;51.018;4.282;2022-10-24T13:13:01;4.55;;;0.80;;
18905;SDS011;9585;51.018;4.282;2022-10-24T13:15:45;3.00;;;0.75;;
18905;SDS011;9585;51.018;4.282;2022-10-24T13:18:22;2.08;;;0.55;;
18905;SDS011;9585;51.018;4.282;2022-10-24T13:21:07;2.65;;;0.70;;
18905;SDS011;9585;51.018;4.282;2022-10-24T13:23:42;2.42;;;0.65;;
18905;SDS011;9585;51.018;4.282;2022-10-24T13:26:25;3.28;;;0.80;;
18905;SDS011;9585;51.018;4.282;2022-10-24T13:29:02;2.17;;;0.55;;
18905;SDS011;9585;51.018;4.282;2022-10-24T13:31:39;2.80;;;0.70;;
18905;SDS011;9585;51.018;4.282;2022-10-24T13:34:18;3.15;;;0.70;;
18905;SDS011;9585;51.018;4.282;2022-10-24T13:36:52;4.82;;;0.77;;
18905;SDS011;9585;51.018;4.282;2022-10-24T13:39:27;2.58;;;0.50;;
18905;SDS011;9585;51.018;4.282;2022-10-24T13:41:59;3.38;;;0.63;;
18905;SDS011;9585;51.018;4.282;2022-10-24T13:44:32;4.40;;;0.88;;
18905;SDS011;9585;51.018;4.282;2022-10-24T13:47:12;2.75;;;0.80;;
18905;SDS011;9585;51.018;4.282;2022-10-24T13:49:47;5.47;;;0.75;;
18905;SDS011;9585;51.018;4.282;2022-10-24T13:52:20;4.00;;;0.98;;
18905;SDS011;9585;51.018;4.282;2022-10-24T13:54:53;3.08;;;1.00;;
18905;SDS011;9585;51.018;4.282;2022-10-24T13:57:26;3.13;;;0.90;;
18905;SDS011;9585;51.018;4.282;2022-10-24T13:59:58;3.22;;;0.90;;
18905;SDS011;9585;51.018;4.282;2022-10-24T14:02:30;4.50;;;0.85;;
18905;SDS011;9585;51.018;4.282;2022-10-24T14:05:03;2.30;;;0.82;;
18905;SDS011;9585;51.018;4.282;2022-10-24T14:07:31;3.75;;;1.10;;
18905;SDS011;9585;51.018;4.282;2022-10-24T14:10:00;2.53;;;0.77;;
18905;SDS011;9585;51.018;4.282;2022-10-24T14:12:34;4.10;;;0.90;;
18905;SDS011;9585;51.018;4.282;2022-10-24T14:15:05;4.15;;;0.90;;
18905;SDS011;9585;51.018;4.282;2022-10-24T14:17:54;2.55;;;0.68;;
18905;SDS011;9585;51.018;4.282;2022-10-24T14:20:24;3.00;;;1.02;;
18905;SDS011;9585;51.018;4.282;2022-10-24T14:22:53;2.90;;;0.88;;
18905;SDS011;9585;51.018;4.282;2022-10-24T14:25:24;3.72;;;0.80;;
18905;SDS011;9585;51.018;4.282;2022-10-24T14:27:54;6.50;;;1.10;;
18905;SDS011;9585;51.018;4.282;2022-10-24T14:30:26;3.33;;;1.13;;
18905;SDS011;9585;51.018;4.282;2022-10-24T14:33:16;7.28;;;1.25;;
18905;SDS011;9585;51.018;4.282;2022-10-24T14:35:46;4.55;;;1.10;;
18905;SDS011;9585;51.018;4.282;2022-10-24T14:38:14;3.50;;;1.10;;
18905;SDS011;9585;51.018;4.282;2022-10-24T14:40:43;5.07;;;1.20;;
18905;SDS011;9585;51.018;4.282;2022-10-24T14:43:12;4.40;;;1.10;;
18905;SDS011;9585;51.018;4.282;2022-10-24T14:45:41;4.40;;;1.30;;
18905;SDS011;9585;51.018;4.282;2022-10-24T14:48:53;5.07;;;1.17;;
18905;SDS011;9585;51.018;4.282;2022-10-24T14:51:23;4.63;;;1.23;;
18905;SDS011;9585;51.018;4.282;2022-10-24T14:53:53;6.82;;;1.60;;
18905;SDS011;9585;51.018;4.282;2022-10-24T14:56:23;3.08;;;1.25;;
18905;SDS011;9585;51.018;4.282;2022-10-24T14:58:53;2.80;;;1.20;;
18905;SDS011;9585;51.018;4.282;2022-10-24T15:01:22;3.33;;;1.10;;
18905;SDS011;9585;51.018;4.282;2022-10-24T15:03:50;4.57;;;1.20;;
18905;SDS011;9585;51.018;4.282;2022-10-24T15:06:22;5.22;;;1.23;;
18905;SDS011;9585;51.018;4.282;2022-10-24T15:09:00;4.50;;;1.20;;
18905;SDS011;9585;51.018;4.282;2022-10-24T15:11:36;4.40;;;1.40;;
18905;SDS011;9585;51.018;4.282;2022-10-24T15:14:04;6.10;;;1.42;;
18905;SDS011;9585;51.018;4.282;2022-10-24T15:16:47;6.22;;;1.25;;
18905;SDS011;9585;51.018;4.282;2022-10-24T15:19:14;4.60;;;1.20;;
18905;SDS011;9585;51.018;4.282;2022-10-24T15:21:45;5.72;;;1.30;;
18905;SDS011;9585;51.018;4.282;2022-10-24T15:24:17;6.05;;;1.35;;
18905;SDS011;9585;51.018;4.282;2022-10-24T15:26:47;4.55;;;1.52;;
18905;SDS011;9585;51.018;4.282;2022-10-24T15:29:17;4.10;;;1.17;;
18905;SDS011;9585;51.018;4.282;2022-10-24T15:31:47;6.13;;;1.55;;
18905;SDS011;9585;51.018;4.282;2022-10-24T15:34:16;5.20;;;1.08;;
18905;SDS011;9585;51.018;4.282;2022-10-24T15:36:47;6.53;;;1.17;;
18905;SDS011;9585;51.018;4.282;2022-10-24T15:39:16;5.53;;;1.23;;
18905;SDS011;9585;51.018;4.282;2022-10-24T15:41:45;5.88;;;1.40;;
18905;SDS011;9585;51.018;4.282;2022-10-24T15:44:14;4.22;;;1.08;;
18905;SDS011;9585;51.018;4.282;2022-10-24T15:46:42;5.30;;;1.27;;
18905;SDS011;9585;51.018;4.282;2022-10-24T15:49:10;4.13;;;1.27;;
18905;SDS011;9585;51.018;4.282;2022-10-24T15:51:38;6.95;;;1.75;;